sensor_id;sensor_type;location;lat;lon;timestamp;P1;durP1;ratioP1;P2;durP2;ratioP2
34725;SDS011;20951;50.818;4.344;2023-02-04T00:00:59;33.40;;;20.40;;
34725;SDS011;20951;50.818;4.344;2023-02-04T00:03:25;32.30;;;20.60;;
34725;SDS011;20951;50.818;4.344;2023-02-04T00:05:51;30.80;;;20.35;;
34725;SDS011;20951;50.818;4.344;2023-02-04T00:08:17;29.92;;;20.20;;
34725;SDS011;20951;50.818;4.344;2023-02-04T00:10:43;29.45;;;19.50;;
34725;SDS011;20951;50.818;4.344;2023-02-04T00:13:09;32.35;;;19.83;;
34725;SDS011;20951;50.818;4.344;2023-02-04T00:15:35;30.95;;;19.38;;
34725;SDS011;20951;50.818;4.344;2023-02-04T00:18:00;31.75;;;18.80;;
34725;SDS011;20951;50.818;4.344;2023-02-04T00:20:27;29.92;;;18.88;;
34725;SDS011;20951;50.818;4.344;2023-02-04T00:22:53;36.92;;;20.27;;
34725;SDS011;20951;50.818;4.344;2023-02-04T00:25:19;32.53;;;19.58;;
34725;SDS011;20951;50.818;4.344;2023-02-04T00:27:44;28.95;;;18.25;;
34725;SDS011;20951;50.818;4.344;2023-02-04T00:30:10;35.13;;;19.35;;
34725;SDS011;20951;50.818;4.344;2023-02-04T00:32:37;32.30;;;18.52;;
34725;SDS011;20951;50.818;4.344;2023-02-04T00:35:03;27.83;;;19.17;;
34725;SDS011;20951;50.818;4.344;2023-02-04T00:37:30;31.17;;;19.38;;
34725;SDS011;20951;50.818;4.344;2023-02-04T00:39:56;31.63;;;18.98;;
34725;SDS011;20951;50.818;4.344;2023-02-04T00:42:22;32.40;;;18.55;;
34725;SDS011;20951;50.818;4.344;2023-02-04T00:44:49;27.38;;;18.42;;
34725;SDS011;20951;50.818;4.344;2023-02-04T00:47:15;32.08;;;18.08;;
34725;SDS011;20951;50.818;4.344;2023-02-04T00:49:40;32.75;;;19.33;;
34725;SDS011;20951;50.818;4.344;2023-02-04T00:52:06;31.92;;;19.02;;
34725;SDS011;20951;50.818;4.344;2023-02-04T00:54:32;27.98;;;19.25;;
34725;SDS011;20951;50.818;4.344;2023-02-04T00:56:58;33.45;;;20.00;;
34725;SDS011;20951;50.818;4.344;2023-02-04T00:59:24;30.88;;;19.75;;
34725;SDS011;20951;50.818;4.344;2023-02-04T01:01:50;31.27;;;19.73;;
34725;SDS011;20951;50.818;4.344;2023-02-04T01:04:16;36.40;;;21.40;;
34725;SDS011;20951;50.818;4.344;2023-02-04T01:06:41;32.15;;;21.60;;
34725;SDS011;20951;50.818;4.344;2023-02-04T01:09:07;34.42;;;21.25;;
34725;SDS011;20951;50.818;4.344;2023-02-04T01:11:34;34.50;;;21.70;;
34725;SDS011;20951;50.818;4.344;2023-02-04T01:14:00;36.58;;;22.60;;
34725;SDS011;20951;50.818;4.344;2023-02-04T01:16:26;35.53;;;24.08;;
34725;SDS011;20951;50.818;4.344;2023-02-04T01:18:52;38.40;;;24.58;;
34725;SDS011;20951;50.818;4.344;2023-02-04T01:21:20;43.92;;;27.30;;
34725;SDS011;20951;50.818;4.344;2023-02-04T01:23:47;47.88;;;27.30;;
34725;SDS011;20951;50.818;4.344;2023-02-04T01:26:14;47.03;;;27.83;;
34725;SDS011;20951;50.818;4.344;2023-02-04T01:28:40;47.45;;;29.40;;
34725;SDS011;20951;50.818;4.344;2023-02-04T01:31:06;45.92;;;30.08;;
34725;SDS011;20951;50.818;4.344;2023-02-04T01:33:32;52.03;;;32.03;;
34725;SDS011;20951;50.818;4.344;2023-02-04T01:35:57;53.60;;;32.13;;
34725;SDS011;20951;50.818;4.344;2023-02-04T01:38:23;56.97;;;34.33;;
34725;SDS011;20951;50.818;4.344;2023-02-04T01:40:49;48.00;;;32.42;;
34725;SDS011;20951;50.818;4.344;2023-02-04T01:43:15;57.03;;;33.08;;
34725;SDS011;20951;50.818;4.344;2023-02-04T01:45:42;60.53;;;35.20;;
34725;SDS011;20951;50.818;4.344;2023-02-04T01:48:09;57.00;;;35.45;;
34725;SDS011;20951;50.818;4.344;2023-02-04T01:50:37;57.95;;;36.30;;
34725;SDS011;20951;50.818;4.344;2023-02-04T01:53:03;60.75;;;36.50;;
34725;SDS011;20951;50.818;4.344;2023-02-04T01:55:29;58.30;;;36.95;;
34725;SDS011;20951;50.818;4.344;2023-02-04T01:57:57;58.75;;;35.55;;
34725;SDS011;20951;50.818;4.344;2023-02-04T02:00:25;53.97;;;35.63;;
34725;SDS011;20951;50.818;4.344;2023-02-04T02:02:56;56.15;;;35.53;;
34725;SDS011;20951;50.818;4.344;2023-02-04T02:05:24;61.40;;;36.53;;
34725;SDS011;20951;50.818;4.344;2023-02-04T02:07:56;60.08;;;35.97;;
34725;SDS011;20951;50.818;4.344;2023-02-04T02:10:24;64.57;;;37.33;;
34725;SDS011;20951;50.818;4.344;2023-02-04T02:12:50;64.95;;;39.15;;
34725;SDS011;20951;50.818;4.344;2023-02-04T02:15:18;65.28;;;39.92;;
34725;SDS011;20951;50.818;4.344;2023-02-04T02:17:43;71.35;;;41.13;;
34725;SDS011;20951;50.818;4.344;2023-02-04T02:20:11;70.82;;;40.90;;
34725;SDS011;20951;50.818;4.344;2023-02-04T02:25:32;70.05;;;40.53;;
34725;SDS011;20951;50.818;4.344;2023-02-04T02:27:58;70.65;;;41.45;;
34725;SDS011;20951;50.818;4.344;2023-02-04T02:30:25;70.05;;;39.67;;
34725;SDS011;20951;50.818;4.344;2023-02-04T02:32:53;80.35;;;41.00;;
34725;SDS011;20951;50.818;4.344;2023-02-04T02:35:19;64.03;;;38.47;;
34725;SDS011;20951;50.818;4.344;2023-02-04T02:37:45;75.72;;;41.22;;
34725;SDS011;20951;50.818;4.344;2023-02-04T02:40:12;73.80;;;41.40;;
34725;SDS011;20951;50.818;4.344;2023-02-04T02:42:39;70.30;;;40.33;;
34725;SDS011;20951;50.818;4.344;2023-02-04T02:45:09;73.95;;;40.30;;
34725;SDS011;20951;50.818;4.344;2023-02-04T02:47:45;73.03;;;39.53;;
34725;SDS011;20951;50.818;4.344;2023-02-04T02:50:14;74.70;;;40.05;;
34725;SDS011;20951;50.818;4.344;2023-02-04T02:52:41;75.13;;;40.95;;
34725;SDS011;20951;50.818;4.344;2023-02-04T02:55:12;78.82;;;41.47;;
34725;SDS011;20951;50.818;4.344;2023-02-04T02:57:40;81.10;;;40.40;;
34725;SDS011;20951;50.818;4.344;2023-02-04T03:00:13;76.38;;;41.42;;
34725;SDS011;20951;50.818;4.344;2023-02-04T03:05:06;72.10;;;38.75;;
34725;SDS011;20951;50.818;4.344;2023-02-04T03:07:32;67.70;;;37.22;;
34725;SDS011;20951;50.818;4.344;2023-02-04T03:09:57;63.60;;;37.80;;
34725;SDS011;20951;50.818;4.344;2023-02-04T03:12:23;69.70;;;38.50;;
34725;SDS011;20951;50.818;4.344;2023-02-04T03:14:49;67.22;;;36.72;;
34725;SDS011;20951;50.818;4.344;2023-02-04T03:17:15;62.90;;;35.15;;
34725;SDS011;20951;50.818;4.344;2023-02-04T03:19:41;58.42;;;34.17;;
34725;SDS011;20951;50.818;4.344;2023-02-04T03:22:07;63.03;;;34.17;;
34725;SDS011;20951;50.818;4.344;2023-02-04T03:24:33;59.20;;;32.78;;
34725;SDS011;20951;50.818;4.344;2023-02-04T03:27:00;59.53;;;32.13;;
34725;SDS011;20951;50.818;4.344;2023-02-04T03:29:26;56.58;;;31.63;;
34725;SDS011;20951;50.818;4.344;2023-02-04T03:31:52;59.70;;;31.05;;
34725;SDS011;20951;50.818;4.344;2023-02-04T03:34:19;57.10;;;31.02;;
34725;SDS011;20951;50.818;4.344;2023-02-04T03:36:46;55.13;;;29.95;;
34725;SDS011;20951;50.818;4.344;2023-02-04T03:39:12;53.30;;;29.05;;
34725;SDS011;20951;50.818;4.344;2023-02-04T03:41:38;54.10;;;30.42;;
34725;SDS011;20951;50.818;4.344;2023-02-04T03:44:03;55.38;;;30.60;;
34725;SDS011;20951;50.818;4.344;2023-02-04T03:46:29;50.20;;;28.27;;
34725;SDS011;20951;50.818;4.344;2023-02-04T03:48:55;53.53;;;29.02;;
34725;SDS011;20951;50.818;4.344;2023-02-04T03:51:21;48.90;;;27.88;;
34725;SDS011;20951;50.818;4.344;2023-02-04T03:53:47;49.00;;;26.05;;
34725;SDS011;20951;50.818;4.344;2023-02-04T03:56:12;44.97;;;25.85;;
34725;SDS011;20951;50.818;4.344;2023-02-04T03:58:38;46.15;;;25.27;;
34725;SDS011;20951;50.818;4.344;2023-02-04T04:01:04;46.03;;;24.55;;
34725;SDS011;20951;50.818;4.344;2023-02-04T04:03:30;49.50;;;24.25;;
34725;SDS011;20951;50.818;4.344;2023-02-04T04:05:57;51.28;;;25.02;;
34725;SDS011;20951;50.818;4.344;2023-02-04T04:08:23;49.40;;;24.73;;
34725;SDS011;20951;50.818;4.344;2023-02-04T04:10:49;47.10;;;24.80;;
34725;SDS011;20951;50.818;4.344;2023-02-04T04:13:15;51.90;;;24.83;;
34725;SDS011;20951;50.818;4.344;2023-02-04T04:15:41;44.22;;;23.27;;
34725;SDS011;20951;50.818;4.344;2023-02-04T04:18:07;41.47;;;22.40;;
34725;SDS011;20951;50.818;4.344;2023-02-04T04:20:32;42.08;;;21.73;;
34725;SDS011;20951;50.818;4.344;2023-02-04T04:22:58;41.38;;;22.48;;
34725;SDS011;20951;50.818;4.344;2023-02-04T04:25:24;42.92;;;21.80;;
34725;SDS011;20951;50.818;4.344;2023-02-04T04:27:50;43.65;;;22.33;;
34725;SDS011;20951;50.818;4.344;2023-02-04T04:30:16;43.38;;;22.90;;
34725;SDS011;20951;50.818;4.344;2023-02-04T04:32:42;45.67;;;23.52;;
34725;SDS011;20951;50.818;4.344;2023-02-04T04:35:08;41.80;;;22.10;;
34725;SDS011;20951;50.818;4.344;2023-02-04T04:37:34;41.78;;;22.02;;
34725;SDS011;20951;50.818;4.344;2023-02-04T04:39:59;41.78;;;22.85;;
34725;SDS011;20951;50.818;4.344;2023-02-04T04:42:26;39.92;;;21.38;;
34725;SDS011;20951;50.818;4.344;2023-02-04T04:44:52;32.95;;;18.77;;
34725;SDS011;20951;50.818;4.344;2023-02-04T04:47:18;36.40;;;19.73;;
34725;SDS011;20951;50.818;4.344;2023-02-04T04:49:44;37.45;;;20.70;;
34725;SDS011;20951;50.818;4.344;2023-02-04T04:52:10;33.80;;;19.23;;
34725;SDS011;20951;50.818;4.344;2023-02-04T04:54:35;34.58;;;19.50;;
34725;SDS011;20951;50.818;4.344;2023-02-04T04:57:01;39.47;;;20.95;;
34725;SDS011;20951;50.818;4.344;2023-02-04T04:59:27;38.58;;;20.90;;
34725;SDS011;20951;50.818;4.344;2023-02-04T05:01:53;39.35;;;20.55;;
34725;SDS011;20951;50.818;4.344;2023-02-04T05:04:19;36.28;;;19.85;;
34725;SDS011;20951;50.818;4.344;2023-02-04T05:06:44;36.90;;;20.67;;
34725;SDS011;20951;50.818;4.344;2023-02-04T05:09:10;35.50;;;20.02;;
34725;SDS011;20951;50.818;4.344;2023-02-04T05:11:39;35.35;;;20.10;;
34725;SDS011;20951;50.818;4.344;2023-02-04T05:14:05;36.80;;;19.77;;
34725;SDS011;20951;50.818;4.344;2023-02-04T05:16:30;33.92;;;20.05;;
34725;SDS011;20951;50.818;4.344;2023-02-04T05:18:56;35.70;;;20.83;;
34725;SDS011;20951;50.818;4.344;2023-02-04T05:21:22;36.17;;;20.60;;
34725;SDS011;20951;50.818;4.344;2023-02-04T05:23:48;35.92;;;20.67;;
34725;SDS011;20951;50.818;4.344;2023-02-04T05:26:13;34.20;;;19.83;;
34725;SDS011;20951;50.818;4.344;2023-02-04T05:28:39;37.22;;;20.38;;
34725;SDS011;20951;50.818;4.344;2023-02-04T05:31:05;33.15;;;19.67;;
34725;SDS011;20951;50.818;4.344;2023-02-04T05:33:31;32.47;;;18.88;;
34725;SDS011;20951;50.818;4.344;2023-02-04T05:35:57;35.20;;;19.85;;
34725;SDS011;20951;50.818;4.344;2023-02-04T05:38:23;45.92;;;30.08;;
34725;SDS011;20951;50.818;4.344;2023-02-04T05:40:48;34.63;;;20.48;;
34725;SDS011;20951;50.818;4.344;2023-02-04T05:43:14;35.92;;;21.33;;
34725;SDS011;20951;50.818;4.344;2023-02-04T05:45:40;38.13;;;21.33;;
34725;SDS011;20951;50.818;4.344;2023-02-04T05:48:06;36.55;;;21.88;;
34725;SDS011;20951;50.818;4.344;2023-02-04T05:50:31;38.88;;;21.15;;
34725;SDS011;20951;50.818;4.344;2023-02-04T05:52:57;39.13;;;21.55;;
34725;SDS011;20951;50.818;4.344;2023-02-04T05:55:23;41.50;;;22.50;;
34725;SDS011;20951;50.818;4.344;2023-02-04T05:57:49;43.72;;;23.05;;
34725;SDS011;20951;50.818;4.344;2023-02-04T06:00:14;43.28;;;23.45;;
34725;SDS011;20951;50.818;4.344;2023-02-04T06:02:40;43.85;;;23.65;;
34725;SDS011;20951;50.818;4.344;2023-02-04T06:05:06;44.83;;;22.77;;
34725;SDS011;20951;50.818;4.344;2023-02-04T06:07:32;42.20;;;22.65;;
34725;SDS011;20951;50.818;4.344;2023-02-04T06:09:58;44.35;;;23.73;;
34725;SDS011;20951;50.818;4.344;2023-02-04T06:12:24;45.95;;;24.35;;
34725;SDS011;20951;50.818;4.344;2023-02-04T06:14:49;43.10;;;23.23;;
34725;SDS011;20951;50.818;4.344;2023-02-04T06:17:15;43.85;;;23.45;;
34725;SDS011;20951;50.818;4.344;2023-02-04T06:19:41;45.05;;;23.38;;
34725;SDS011;20951;50.818;4.344;2023-02-04T06:22:07;46.53;;;23.73;;
34725;SDS011;20951;50.818;4.344;2023-02-04T06:24:33;41.53;;;23.73;;
34725;SDS011;20951;50.818;4.344;2023-02-04T06:26:58;49.53;;;24.75;;
34725;SDS011;20951;50.818;4.344;2023-02-04T06:29:24;50.80;;;25.67;;
34725;SDS011;20951;50.818;4.344;2023-02-04T06:31:50;51.25;;;25.92;;
34725;SDS011;20951;50.818;4.344;2023-02-04T06:34:16;53.35;;;25.33;;
34725;SDS011;20951;50.818;4.344;2023-02-04T06:36:41;53.45;;;25.88;;
34725;SDS011;20951;50.818;4.344;2023-02-04T06:39:07;50.45;;;24.52;;
34725;SDS011;20951;50.818;4.344;2023-02-04T06:41:33;52.80;;;25.77;;
34725;SDS011;20951;50.818;4.344;2023-02-04T06:43:59;52.83;;;25.42;;
34725;SDS011;20951;50.818;4.344;2023-02-04T06:46:28;50.85;;;23.83;;
34725;SDS011;20951;50.818;4.344;2023-02-04T06:48:56;52.20;;;25.63;;
34725;SDS011;20951;50.818;4.344;2023-02-04T06:51:24;58.67;;;27.48;;
34725;SDS011;20951;50.818;4.344;2023-02-04T06:53:52;61.08;;;28.13;;
34725;SDS011;20951;50.818;4.344;2023-02-04T06:56:20;59.95;;;27.80;;
34725;SDS011;20951;50.818;4.344;2023-02-04T06:58:48;64.38;;;28.50;;
34725;SDS011;20951;50.818;4.344;2023-02-04T07:01:16;73.03;;;29.95;;
34725;SDS011;20951;50.818;4.344;2023-02-04T07:03:44;68.93;;;30.23;;
34725;SDS011;20951;50.818;4.344;2023-02-04T07:06:12;76.07;;;30.40;;
34725;SDS011;20951;50.818;4.344;2023-02-04T07:08:40;66.70;;;28.38;;
34725;SDS011;20951;50.818;4.344;2023-02-04T07:11:08;74.13;;;29.30;;
34725;SDS011;20951;50.818;4.344;2023-02-04T07:13:36;68.55;;;27.88;;
34725;SDS011;20951;50.818;4.344;2023-02-04T07:16:04;70.40;;;27.38;;
34725;SDS011;20951;50.818;4.344;2023-02-04T07:18:32;65.95;;;27.50;;
34725;SDS011;20951;50.818;4.344;2023-02-04T07:20:59;57.72;;;25.25;;
34725;SDS011;20951;50.818;4.344;2023-02-04T07:23:27;54.60;;;24.27;;
34725;SDS011;20951;50.818;4.344;2023-02-04T07:25:55;58.42;;;23.88;;
34725;SDS011;20951;50.818;4.344;2023-02-04T07:28:23;48.17;;;21.52;;
34725;SDS011;20951;50.818;4.344;2023-02-04T07:30:52;51.92;;;23.48;;
34725;SDS011;20951;50.818;4.344;2023-02-04T07:33:20;46.50;;;22.80;;
34725;SDS011;20951;50.818;4.344;2023-02-04T07:35:48;49.10;;;23.27;;
34725;SDS011;20951;50.818;4.344;2023-02-04T07:38:17;48.80;;;22.75;;
34725;SDS011;20951;50.818;4.344;2023-02-04T07:40:45;52.67;;;24.25;;
34725;SDS011;20951;50.818;4.344;2023-02-04T07:43:14;54.53;;;24.55;;
34725;SDS011;20951;50.818;4.344;2023-02-04T07:45:41;56.65;;;25.13;;
34725;SDS011;20951;50.818;4.344;2023-02-04T07:48:09;61.55;;;31.25;;
34725;SDS011;20951;50.818;4.344;2023-02-04T07:50:38;57.92;;;25.60;;
34725;SDS011;20951;50.818;4.344;2023-02-04T07:53:05;63.17;;;28.17;;
34725;SDS011;20951;50.818;4.344;2023-02-04T07:55:33;53.47;;;25.92;;
34725;SDS011;20951;50.818;4.344;2023-02-04T07:58:01;64.07;;;29.40;;
34725;SDS011;20951;50.818;4.344;2023-02-04T08:00:29;65.50;;;28.70;;
34725;SDS011;20951;50.818;4.344;2023-02-04T08:02:57;69.00;;;31.33;;
34725;SDS011;20951;50.818;4.344;2023-02-04T08:05:25;64.07;;;29.45;;
34725;SDS011;20951;50.818;4.344;2023-02-04T08:07:54;66.00;;;29.77;;
34725;SDS011;20951;50.818;4.344;2023-02-04T08:10:22;61.17;;;28.77;;
34725;SDS011;20951;50.818;4.344;2023-02-04T08:12:50;65.60;;;28.58;;
34725;SDS011;20951;50.818;4.344;2023-02-04T08:15:18;70.00;;;28.25;;
34725;SDS011;20951;50.818;4.344;2023-02-04T08:17:46;56.90;;;27.05;;
34725;SDS011;20951;50.818;4.344;2023-02-04T08:20:14;50.28;;;25.23;;
34725;SDS011;20951;50.818;4.344;2023-02-04T08:22:42;51.33;;;26.35;;
34725;SDS011;20951;50.818;4.344;2023-02-04T08:25:10;48.28;;;24.58;;
34725;SDS011;20951;50.818;4.344;2023-02-04T08:27:38;47.10;;;23.23;;
34725;SDS011;20951;50.818;4.344;2023-02-04T08:30:07;36.75;;;20.73;;
34725;SDS011;20951;50.818;4.344;2023-02-04T08:32:35;38.90;;;19.40;;
34725;SDS011;20951;50.818;4.344;2023-02-04T08:35:03;37.75;;;19.40;;
34725;SDS011;20951;50.818;4.344;2023-02-04T08:37:31;33.22;;;17.48;;
34725;SDS011;20951;50.818;4.344;2023-02-04T08:39:59;33.83;;;17.65;;
34725;SDS011;20951;50.818;4.344;2023-02-04T08:42:27;28.25;;;15.32;;
34725;SDS011;20951;50.818;4.344;2023-02-04T08:44:55;29.20;;;15.40;;
34725;SDS011;20951;50.818;4.344;2023-02-04T08:47:23;28.02;;;16.08;;
34725;SDS011;20951;50.818;4.344;2023-02-04T08:49:51;26.95;;;17.23;;
34725;SDS011;20951;50.818;4.344;2023-02-04T08:52:19;34.55;;;17.98;;
34725;SDS011;20951;50.818;4.344;2023-02-04T08:54:46;30.17;;;17.88;;
34725;SDS011;20951;50.818;4.344;2023-02-04T08:57:13;29.58;;;18.23;;
34725;SDS011;20951;50.818;4.344;2023-02-04T08:59:41;32.30;;;18.55;;
34725;SDS011;20951;50.818;4.344;2023-02-04T09:02:10;28.52;;;17.92;;
34725;SDS011;20951;50.818;4.344;2023-02-04T09:04:38;26.42;;;16.52;;
34725;SDS011;20951;50.818;4.344;2023-02-04T09:07:06;24.73;;;15.70;;
34725;SDS011;20951;50.818;4.344;2023-02-04T09:09:32;22.45;;;14.77;;
34725;SDS011;20951;50.818;4.344;2023-02-04T09:11:58;24.50;;;15.52;;
34725;SDS011;20951;50.818;4.344;2023-02-04T09:14:25;21.33;;;14.75;;
34725;SDS011;20951;50.818;4.344;2023-02-04T09:16:51;19.15;;;12.63;;
34725;SDS011;20951;50.818;4.344;2023-02-04T09:19:17;17.85;;;12.30;;
34725;SDS011;20951;50.818;4.344;2023-02-04T09:21:49;16.88;;;12.40;;
34725;SDS011;20951;50.818;4.344;2023-02-04T09:24:15;20.75;;;13.55;;
34725;SDS011;20951;50.818;4.344;2023-02-04T09:26:41;21.23;;;14.38;;
34725;SDS011;20951;50.818;4.344;2023-02-04T09:29:07;22.75;;;14.20;;
34725;SDS011;20951;50.818;4.344;2023-02-04T09:31:33;22.75;;;15.45;;
34725;SDS011;20951;50.818;4.344;2023-02-04T09:33:59;22.38;;;14.25;;
34725;SDS011;20951;50.818;4.344;2023-02-04T09:36:25;22.13;;;13.80;;
34725;SDS011;20951;50.818;4.344;2023-02-04T09:38:53;19.95;;;13.57;;
34725;SDS011;20951;50.818;4.344;2023-02-04T09:41:19;21.40;;;14.20;;
34725;SDS011;20951;50.818;4.344;2023-02-04T09:43:45;18.42;;;12.40;;
34725;SDS011;20951;50.818;4.344;2023-02-04T09:46:19;18.95;;;12.25;;
34725;SDS011;20951;50.818;4.344;2023-02-04T09:48:47;19.95;;;13.35;;
34725;SDS011;20951;50.818;4.344;2023-02-04T09:51:16;21.23;;;13.15;;
34725;SDS011;20951;50.818;4.344;2023-02-04T09:53:46;16.73;;;11.98;;
34725;SDS011;20951;50.818;4.344;2023-02-04T09:56:14;19.10;;;12.75;;
34725;SDS011;20951;50.818;4.344;2023-02-04T09:58:43;19.10;;;12.30;;
34725;SDS011;20951;50.818;4.344;2023-02-04T10:01:15;20.88;;;13.43;;
34725;SDS011;20951;50.818;4.344;2023-02-04T10:03:45;17.27;;;12.03;;
34725;SDS011;20951;50.818;4.344;2023-02-04T10:06:19;17.63;;;12.30;;
34725;SDS011;20951;50.818;4.344;2023-02-04T10:08:47;16.48;;;11.02;;
34725;SDS011;20951;50.818;4.344;2023-02-04T10:11:16;14.63;;;10.70;;
34725;SDS011;20951;50.818;4.344;2023-02-04T10:13:46;15.32;;;11.20;;
34725;SDS011;20951;50.818;4.344;2023-02-04T10:16:27;16.48;;;10.95;;
34725;SDS011;20951;50.818;4.344;2023-02-04T10:18:58;17.08;;;11.93;;
34725;SDS011;20951;50.818;4.344;2023-02-04T10:21:32;18.85;;;12.63;;
34725;SDS011;20951;50.818;4.344;2023-02-04T10:24:04;18.77;;;12.38;;
34725;SDS011;20951;50.818;4.344;2023-02-04T10:26:42;20.23;;;14.00;;
34725;SDS011;20951;50.818;4.344;2023-02-04T10:29:14;20.30;;;12.13;;
34725;SDS011;20951;50.818;4.344;2023-02-04T10:31:44;18.75;;;12.38;;
34725;SDS011;20951;50.818;4.344;2023-02-04T10:34:22;19.67;;;11.80;;
34725;SDS011;20951;50.818;4.344;2023-02-04T10:36:57;14.15;;;9.75;;
34725;SDS011;20951;50.818;4.344;2023-02-04T10:39:28;12.05;;;8.65;;
34725;SDS011;20951;50.818;4.344;2023-02-04T10:41:57;11.32;;;7.68;;
34725;SDS011;20951;50.818;4.344;2023-02-04T10:49:29;10.25;;;7.30;;
34725;SDS011;20951;50.818;4.344;2023-02-04T10:51:56;10.85;;;7.65;;
34725;SDS011;20951;50.818;4.344;2023-02-04T10:54:23;9.07;;;7.22;;
34725;SDS011;20951;50.818;4.344;2023-02-04T10:56:55;9.95;;;6.82;;
34725;SDS011;20951;50.818;4.344;2023-02-04T10:59:24;9.85;;;7.03;;
34725;SDS011;20951;50.818;4.344;2023-02-04T11:01:53;9.30;;;6.75;;
34725;SDS011;20951;50.818;4.344;2023-02-04T11:04:20;8.88;;;6.63;;
34725;SDS011;20951;50.818;4.344;2023-02-04T11:06:46;12.90;;;9.73;;
34725;SDS011;20951;50.818;4.344;2023-02-04T11:09:12;11.82;;;9.55;;
34725;SDS011;20951;50.818;4.344;2023-02-04T11:11:43;10.98;;;8.27;;
34725;SDS011;20951;50.818;4.344;2023-02-04T11:14:27;12.90;;;9.82;;
34725;SDS011;20951;50.818;4.344;2023-02-04T11:16:54;12.02;;;9.90;;
34725;SDS011;20951;50.818;4.344;2023-02-04T11:19:38;17.20;;;11.40;;
34725;SDS011;20951;50.818;4.344;2023-02-04T11:22:07;15.02;;;11.32;;
34725;SDS011;20951;50.818;4.344;2023-02-04T11:24:46;18.98;;;13.38;;
34725;SDS011;20951;50.818;4.344;2023-02-04T11:27:35;21.60;;;14.02;;
34725;SDS011;20951;50.818;4.344;2023-02-04T11:30:04;20.48;;;14.13;;
34725;SDS011;20951;50.818;4.344;2023-02-04T11:32:54;21.58;;;14.68;;
34725;SDS011;20951;50.818;4.344;2023-02-04T11:35:25;26.02;;;17.27;;
34725;SDS011;20951;50.818;4.344;2023-02-04T11:37:55;25.85;;;18.85;;
34725;SDS011;20951;50.818;4.344;2023-02-04T11:40:23;27.98;;;19.70;;
34725;SDS011;20951;50.818;4.344;2023-02-04T11:43:10;29.08;;;20.15;;
34725;SDS011;20951;50.818;4.344;2023-02-04T11:45:40;33.53;;;20.38;;
34725;SDS011;20951;50.818;4.344;2023-02-04T11:48:14;30.40;;;20.35;;
34725;SDS011;20951;50.818;4.344;2023-02-04T11:50:54;32.40;;;21.02;;
34725;SDS011;20951;50.818;4.344;2023-02-04T11:53:31;33.80;;;20.83;;
34725;SDS011;20951;50.818;4.344;2023-02-04T11:55:58;30.60;;;21.15;;
34725;SDS011;20951;50.818;4.344;2023-02-04T11:58:24;33.63;;;21.73;;
34725;SDS011;20951;50.818;4.344;2023-02-04T12:00:52;30.77;;;19.85;;
34725;SDS011;20951;50.818;4.344;2023-02-04T12:05:53;33.00;;;19.63;;
34725;SDS011;20951;50.818;4.344;2023-02-04T12:13:31;24.70;;;15.23;;
34725;SDS011;20951;50.818;4.344;2023-02-04T12:15:59;26.33;;;15.98;;
34725;SDS011;20951;50.818;4.344;2023-02-04T12:18:27;24.92;;;16.83;;
34725;SDS011;20951;50.818;4.344;2023-02-04T12:20:57;31.65;;;18.33;;
34725;SDS011;20951;50.818;4.344;2023-02-04T12:23:24;28.13;;;16.80;;
34725;SDS011;20951;50.818;4.344;2023-02-04T12:25:51;23.05;;;13.10;;
34725;SDS011;20951;50.818;4.344;2023-02-04T12:28:17;23.98;;;12.20;;
34725;SDS011;20951;50.818;4.344;2023-02-04T12:30:43;21.70;;;11.27;;
34725;SDS011;20951;50.818;4.344;2023-02-04T12:33:09;20.98;;;11.93;;
34725;SDS011;20951;50.818;4.344;2023-02-04T12:35:35;22.48;;;11.23;;
34725;SDS011;20951;50.818;4.344;2023-02-04T12:38:01;21.38;;;12.05;;
34725;SDS011;20951;50.818;4.344;2023-02-04T12:40:27;21.23;;;12.00;;
34725;SDS011;20951;50.818;4.344;2023-02-04T12:42:53;22.83;;;12.02;;
34725;SDS011;20951;50.818;4.344;2023-02-04T12:45:19;21.70;;;12.13;;
34725;SDS011;20951;50.818;4.344;2023-02-04T12:47:45;22.95;;;14.30;;
34725;SDS011;20951;50.818;4.344;2023-02-04T12:50:12;28.20;;;14.93;;
34725;SDS011;20951;50.818;4.344;2023-02-04T12:52:39;23.35;;;14.77;;
34725;SDS011;20951;50.818;4.344;2023-02-04T12:55:06;24.58;;;14.50;;
34725;SDS011;20951;50.818;4.344;2023-02-04T12:57:33;22.40;;;14.65;;
34725;SDS011;20951;50.818;4.344;2023-02-04T12:59:59;29.48;;;17.52;;
34725;SDS011;20951;50.818;4.344;2023-02-04T13:02:28;25.73;;;16.13;;
34725;SDS011;20951;50.818;4.344;2023-02-04T13:04:54;29.98;;;18.27;;
34725;SDS011;20951;50.818;4.344;2023-02-04T13:07:20;29.85;;;18.90;;
34725;SDS011;20951;50.818;4.344;2023-02-04T13:09:46;29.35;;;19.15;;
34725;SDS011;20951;50.818;4.344;2023-02-04T13:12:13;33.13;;;19.35;;
34725;SDS011;20951;50.818;4.344;2023-02-04T13:14:40;31.45;;;20.05;;
34725;SDS011;20951;50.818;4.344;2023-02-04T13:17:06;30.50;;;19.90;;
34725;SDS011;20951;50.818;4.344;2023-02-04T13:19:32;30.90;;;21.60;;
34725;SDS011;20951;50.818;4.344;2023-02-04T13:21:58;33.85;;;22.35;;
34725;SDS011;20951;50.818;4.344;2023-02-04T13:24:24;33.20;;;23.05;;
34725;SDS011;20951;50.818;4.344;2023-02-04T13:26:50;37.25;;;24.88;;
34725;SDS011;20951;50.818;4.344;2023-02-04T13:29:16;35.30;;;25.02;;
34725;SDS011;20951;50.818;4.344;2023-02-04T13:31:42;35.55;;;25.13;;
34725;SDS011;20951;50.818;4.344;2023-02-04T13:34:08;36.53;;;25.38;;
34725;SDS011;20951;50.818;4.344;2023-02-04T13:36:34;39.45;;;25.80;;
34725;SDS011;20951;50.818;4.344;2023-02-04T13:39:00;37.30;;;25.73;;
34725;SDS011;20951;50.818;4.344;2023-02-04T13:41:26;39.10;;;25.67;;
34725;SDS011;20951;50.818;4.344;2023-02-04T13:43:52;39.28;;;27.20;;
34725;SDS011;20951;50.818;4.344;2023-02-04T13:46:19;43.92;;;26.85;;
34725;SDS011;20951;50.818;4.344;2023-02-04T13:48:46;40.25;;;27.38;;
34725;SDS011;20951;50.818;4.344;2023-02-04T13:51:12;38.80;;;26.90;;
34725;SDS011;20951;50.818;4.344;2023-02-04T13:53:38;43.13;;;28.92;;
34725;SDS011;20951;50.818;4.344;2023-02-04T13:56:04;42.63;;;28.05;;
34725;SDS011;20951;50.818;4.344;2023-02-04T13:58:30;41.08;;;27.77;;
34725;SDS011;20951;50.818;4.344;2023-02-04T14:00:56;40.33;;;27.95;;
34725;SDS011;20951;50.818;4.344;2023-02-04T14:03:26;40.22;;;28.30;;
34725;SDS011;20951;50.818;4.344;2023-02-04T14:05:53;41.85;;;27.85;;
34725;SDS011;20951;50.818;4.344;2023-02-04T14:08:19;44.17;;;29.35;;
34725;SDS011;20951;50.818;4.344;2023-02-04T14:10:46;41.08;;;28.05;;
34725;SDS011;20951;50.818;4.344;2023-02-04T14:13:11;41.47;;;28.95;;
34725;SDS011;20951;50.818;4.344;2023-02-04T14:15:38;36.28;;;27.35;;
34725;SDS011;20951;50.818;4.344;2023-02-04T14:18:05;39.47;;;27.52;;
34725;SDS011;20951;50.818;4.344;2023-02-04T14:20:32;42.25;;;28.95;;
34725;SDS011;20951;50.818;4.344;2023-02-04T14:22:58;41.38;;;29.25;;
34725;SDS011;20951;50.818;4.344;2023-02-04T14:25:24;42.28;;;29.67;;
34725;SDS011;20951;50.818;4.344;2023-02-04T14:27:50;49.50;;;29.20;;
34725;SDS011;20951;50.818;4.344;2023-02-04T14:30:20;45.53;;;29.70;;
34725;SDS011;20951;50.818;4.344;2023-02-04T14:32:48;43.65;;;29.40;;
34725;SDS011;20951;50.818;4.344;2023-02-04T14:35:14;43.85;;;29.92;;
34725;SDS011;20951;50.818;4.344;2023-02-04T14:37:41;42.83;;;29.88;;
34725;SDS011;20951;50.818;4.344;2023-02-04T14:40:07;43.00;;;28.48;;
34725;SDS011;20951;50.818;4.344;2023-02-04T14:42:34;39.30;;;28.48;;